Time;durP1;ratioP1;P1;durP2;ratioP2;P2;SDS_P1;SDS_P2;PMS_P1;PMS_P2;Temp;Humidity;BMP_temperature;BMP_pressure;BME280_temperature;BME280_humidity;BME280_pressure;Samples;Min_cycle;Max_cycle;Signal;HPM_P1;HPM_P2
2021/11/20 00:00:32;;;;;;;23.70;19.90;;;13.50;99.90;;;;;;5012557;28;20563;-37
2021/11/20 00:02:58;;;;;;;23.97;19.70;;;13.50;99.90;;;;;;5027378;28;20424;-37
2021/11/20 00:05:28;;;;;;;23.50;19.83;;;13.40;99.90;;;;;;5023599;28;20445;-37
2021/11/20 00:07:54;;;;;;;23.00;19.30;;;13.40;99.90;;;;;;5015924;28;20449;-37
2021/11/20 00:10:23;;;;;;;22.43;19.50;;;13.40;99.90;;;;;;5012470;28;20472;-37
2021/11/20 00:12:50;;;;;;;27.70;20.07;;;13.40;99.90;;;;;;5024462;28;20417;-37
2021/11/20 00:15:22;;;;;;;25.50;19.40;;;13.30;99.90;;;;;;5009806;28;20817;-37
2021/11/20 00:17:48;;;;;;;23.40;18.43;;;13.40;99.90;;;;;;5015083;28;20473;-37
2021/11/20 00:20:17;;;;;;;22.83;18.87;;;13.40;99.90;;;;;;5007258;28;20430;-37
2021/11/20 00:22:45;;;;;;;23.47;18.13;;;13.50;99.90;;;;;;5012844;28;20425;-36
2021/11/20 00:25:20;;;;;;;26.83;20.00;;;13.50;99.90;;;;;;5019242;28;20425;-38
2021/11/20 00:27:48;;;;;;;24.03;18.63;;;13.30;99.90;;;;;;5023811;28;20421;-37
2021/11/20 00:30:18;;;;;;;24.40;18.87;;;13.30;99.90;;;;;;5008731;28;20433;-36
2021/11/20 00:32:51;;;;;;;23.83;20.60;;;13.30;99.90;;;;;;5009815;28;20418;-36
2021/11/20 00:35:26;;;;;;;23.10;18.57;;;13.20;99.90;;;;;;5008537;28;20425;-37
2021/11/20 00:37:52;;;;;;;23.47;18.57;;;13.10;99.90;;;;;;5016692;28;20832;-37
2021/11/20 00:40:28;;;;;;;22.50;18.10;;;13.20;99.90;;;;;;5020966;28;20436;-36
2021/11/20 00:42:54;;;;;;;28.67;20.17;;;13.10;99.90;;;;;;5012688;28;20434;-37
2021/11/20 00:45:19;;;;;;;24.90;19.30;;;13.00;99.90;;;;;;5008480;28;20422;-36
2021/11/20 00:47:45;;;;;;;23.10;19.33;;;13.00;99.90;;;;;;5024470;28;20197;-37
2021/11/20 00:50:14;;;;;;;22.17;18.10;;;13.00;99.90;;;;;;5015672;28;20519;-36
2021/11/20 00:52:43;;;;;;;21.13;17.40;;;13.00;99.90;;;;;;5010187;28;20186;-37
2021/11/20 00:55:13;;;;;;;23.10;18.50;;;13.00;99.90;;;;;;5016919;28;20421;-36
2021/11/20 00:57:39;;;;;;;21.63;19.33;;;13.10;99.90;;;;;;5014851;28;20626;-36
2021/11/20 01:00:10;;;;;;;22.87;18.93;;;12.90;99.90;;;;;;5023470;28;20417;-36
2021/11/20 01:02:37;;;;;;;23.10;18.40;;;12.70;99.90;;;;;;5014806;28;20520;-36
2021/11/20 01:05:04;;;;;;;23.17;19.77;;;12.70;99.90;;;;;;5006079;28;20476;-37
2021/11/20 01:07:30;;;;;;;25.23;19.23;;;12.70;99.90;;;;;;5008137;28;20527;-37
2021/11/20 01:09:56;;;;;;;26.27;18.87;;;12.70;99.90;;;;;;5019947;28;20426;-37
2021/11/20 01:12:25;;;;;;;23.40;19.20;;;12.70;99.90;;;;;;5021009;28;20429;-36
2021/11/20 01:14:52;;;;;;;24.43;19.83;;;12.60;99.90;;;;;;5012018;28;20191;-37
2021/11/20 01:17:20;;;;;;;26.63;19.33;;;12.40;99.90;;;;;;5010827;28;20468;-36
2021/11/20 01:19:47;;;;;;;26.27;20.47;;;12.40;99.90;;;;;;5005913;28;20777;-37
2021/11/20 01:22:15;;;;;;;26.00;19.70;;;12.20;99.90;;;;;;5007830;28;20445;-36
2021/11/20 01:24:41;;;;;;;26.37;20.50;;;11.90;99.90;;;;;;5020261;28;20784;-36
2021/11/20 01:27:09;;;;;;;28.10;21.27;;;11.80;99.90;;;;;;5021038;28;20429;-37
2021/11/20 01:29:35;;;;;;;25.50;20.07;;;11.90;99.90;;;;;;5011292;28;20500;-36
2021/11/20 01:32:01;;;;;;;26.67;20.43;;;12.00;99.90;;;;;;5016351;28;20432;-37
2021/11/20 01:34:27;;;;;;;26.07;20.27;;;12.00;99.90;;;;;;5010815;28;20836;-36
2021/11/20 01:36:56;;;;;;;27.10;20.00;;;12.20;99.90;;;;;;5007445;28;20430;-36
2021/11/20 01:39:28;;;;;;;25.00;19.37;;;12.20;99.90;;;;;;5009878;28;20770;-37
2021/11/20 01:41:59;;;;;;;26.20;19.37;;;12.20;99.90;;;;;;5016505;28;20433;-37
2021/11/20 01:44:39;;;;;;;26.77;20.50;;;12.10;99.90;;;;;;5021059;28;20429;-36
2021/11/20 01:47:21;;;;;;;26.43;19.83;;;12.20;99.90;;;;;;5020765;28;20500;-36
2021/11/20 01:49:52;;;;;;;24.77;19.50;;;12.20;99.90;;;;;;5012144;28;20422;-37
2021/11/20 01:52:52;;;;;;;22.80;18.60;;;12.30;99.90;;;;;;5007252;28;20414;-36
2021/11/20 01:55:42;;;;;;;26.57;19.70;;;12.40;99.90;;;;;;5010740;28;20425;-37
2021/11/20 01:58:19;;;;;;;24.03;18.80;;;12.20;99.90;;;;;;5025486;28;20475;-36
2021/11/20 02:01:09;;;;;;;24.33;19.27;;;12.20;99.90;;;;;;5008043;28;20513;-37
2021/11/20 02:04:10;;;;;;;24.50;19.40;;;12.10;99.90;;;;;;5009914;28;20426;-36
2021/11/20 02:06:43;;;;;;;24.43;19.73;;;12.00;99.90;;;;;;5012654;28;20430;-36
2021/11/20 02:09:15;;;;;;;22.90;19.03;;;12.00;99.90;;;;;;5011856;28;20804;-36
2021/11/20 02:11:57;;;;;;;29.13;21.00;;;12.00;99.90;;;;;;5019820;28;20409;-36
2021/11/20 02:14:24;;;;;;;26.90;20.53;;;11.90;99.90;;;;;;5006661;28;20508;-37
2021/11/20 02:17:12;;;;;;;29.03;20.43;;;11.90;99.90;;;;;;5011297;28;20417;-36
2021/11/20 02:19:42;;;;;;;27.10;19.43;;;11.80;99.90;;;;;;5010732;28;20414;-36
2021/11/20 02:22:34;;;;;;;28.70;20.97;;;11.90;99.90;;;;;;5007464;28;20433;-37
2021/11/20 02:25:00;;;;;;;25.33;19.33;;;11.90;99.90;;;;;;5016832;28;20468;-36
2021/11/20 02:27:27;;;;;;;27.90;19.27;;;11.90;99.90;;;;;;5013347;28;20862;-36
2021/11/20 02:30:18;;;;;;;23.13;19.03;;;11.80;99.90;;;;;;5006809;28;20693;-36
2021/11/20 02:32:46;;;;;;;25.30;20.20;;;11.80;99.90;;;;;;5016277;28;20436;-36
2021/11/20 02:35:13;;;;;;;26.03;19.80;;;11.80;99.90;;;;;;5010200;28;20442;-36
2021/11/20 02:37:40;;;;;;;25.20;19.97;;;11.80;99.90;;;;;;5010648;28;20453;-36
2021/11/20 02:40:08;;;;;;;23.03;19.80;;;11.80;99.90;;;;;;5021580;28;20432;-36
2021/11/20 02:42:34;;;;;;;26.97;20.73;;;11.90;99.90;;;;;;5024680;28;20713;-36
2021/11/20 02:45:00;;;;;;;24.80;19.80;;;11.80;99.90;;;;;;5028048;28;20502;-36
2021/11/20 02:47:31;;;;;;;24.63;20.63;;;11.70;99.90;;;;;;5028159;28;20472;-37
2021/11/20 02:49:57;;;;;;;26.90;20.20;;;11.60;99.90;;;;;;5019642;28;20714;-36
2021/11/20 02:52:23;;;;;;;27.33;21.50;;;11.80;99.90;;;;;;5010528;28;20785;-36
2021/11/20 02:54:50;;;;;;;26.20;20.17;;;11.50;99.90;;;;;;5015153;28;20429;-36
2021/11/20 02:57:21;;;;;;;26.63;20.70;;;11.60;99.90;;;;;;5025784;28;20573;-37
2021/11/20 02:59:47;;;;;;;27.33;21.17;;;11.50;99.90;;;;;;5018499;28;20421;-36
2021/11/20 03:02:13;;;;;;;25.90;19.37;;;11.80;99.90;;;;;;5010867;28;20410;-37
2021/11/20 03:04:40;;;;;;;25.47;19.60;;;11.60;99.90;;;;;;5009469;28;20445;-36
2021/11/20 03:07:05;;;;;;;28.37;21.17;;;11.70;99.90;;;;;;5020617;28;20440;-36
2021/11/20 03:09:34;;;;;;;23.77;19.73;;;11.60;99.90;;;;;;5022037;28;20421;-37
2021/11/20 03:12:00;;;;;;;27.47;21.13;;;11.70;99.90;;;;;;5022160;28;20180;-36
2021/11/20 03:14:26;;;;;;;26.90;20.97;;;11.70;99.90;;;;;;5012587;28;20537;-36
2021/11/20 03:16:58;;;;;;;27.03;20.63;;;11.70;99.90;;;;;;5011024;28;20522;-37
2021/11/20 03:19:27;;;;;;;27.93;21.00;;;11.70;99.90;;;;;;5016260;28;20611;-36
2021/11/20 03:22:06;;;;;;;28.07;20.60;;;11.60;99.90;;;;;;5012988;28;20554;-36
2021/11/20 03:24:33;;;;;;;25.47;19.60;;;11.60;99.90;;;;;;5018128;28;20445;-37
2021/11/20 03:26:59;;;;;;;26.83;19.80;;;11.40;99.90;;;;;;5019098;28;20429;-37
2021/11/20 03:29:26;;;;;;;24.47;19.73;;;11.60;99.90;;;;;;5013550;28;20411;-36
2021/11/20 03:31:55;;;;;;;25.40;19.20;;;11.50;99.90;;;;;;5010290;28;20869;-36
2021/11/20 03:34:22;;;;;;;25.53;19.80;;;11.40;99.90;;;;;;5013749;28;20410;-36
2021/11/20 03:36:48;;;;;;;26.77;20.57;;;11.50;99.90;;;;;;5009421;28;20999;-36
2021/11/20 03:39:14;;;;;;;26.87;19.43;;;11.50;99.90;;;;;;5012652;28;20474;-36
2021/11/20 03:41:40;;;;;;;23.60;18.23;;;11.40;99.90;;;;;;5025697;28;20988;-37
2021/11/20 03:44:07;;;;;;;25.50;19.20;;;11.50;99.90;;;;;;5021197;28;20448;-36
2021/11/20 03:46:34;;;;;;;26.93;20.10;;;11.40;99.90;;;;;;5026725;28;20498;-36
2021/11/20 03:49:00;;;;;;;28.70;20.00;;;11.50;99.90;;;;;;5024440;28;20433;-36
2021/11/20 03:51:26;;;;;;;25.23;18.90;;;11.40;99.90;;;;;;5009217;28;20568;-36
2021/11/20 03:53:52;;;;;;;25.50;18.63;;;11.40;99.90;;;;;;5011214;28;20435;-36
2021/11/20 03:56:22;;;;;;;23.80;18.67;;;11.40;99.90;;;;;;5019539;28;20430;-36
2021/11/20 03:58:47;;;;;;;22.13;17.63;;;11.30;99.90;;;;;;5018817;28;20207;-36
2021/11/20 04:01:18;;;;;;;27.30;19.20;;;11.40;99.90;;;;;;5009393;28;20794;-37
2021/11/20 04:03:46;;;;;;;23.00;17.77;;;11.40;99.90;;;;;;5019517;28;20191;-36
2021/11/20 04:06:15;;;;;;;25.33;17.97;;;11.40;99.90;;;;;;5009155;28;20468;-36
2021/11/20 04:08:41;;;;;;;24.50;19.30;;;11.30;99.90;;;;;;5022497;28;20664;-36
2021/11/20 04:11:07;;;;;;;25.23;19.87;;;11.30;99.90;;;;;;5015899;28;20699;-37
2021/11/20 04:13:35;;;;;;;23.93;17.27;;;11.30;99.90;;;;;;5018110;28;20925;-36
2021/11/20 04:16:03;;;;;;;25.57;17.40;;;11.40;99.90;;;;;;5008820;28;20210;-36
2021/11/20 04:18:29;;;;;;;22.50;18.10;;;11.30;99.90;;;;;;5014413;28;20462;-36
2021/11/20 04:20:54;;;;;;;21.87;16.80;;;11.30;99.90;;;;;;5008566;28;20429;-36
2021/11/20 04:23:20;;;;;;;23.30;18.93;;;11.30;99.90;;;;;;5016441;28;20794;-36
2021/11/20 04:25:46;;;;;;;21.13;16.50;;;11.30;99.90;;;;;;5018728;28;20182;-36
2021/11/20 04:28:12;;;;;;;21.67;17.73;;;11.20;99.90;;;;;;5021914;28;20225;-36
2021/11/20 04:30:38;;;;;;;22.70;17.50;;;11.10;99.90;;;;;;5017855;28;20286;-36
2021/11/20 04:33:05;;;;;;;24.00;17.10;;;11.10;99.90;;;;;;5011895;28;20237;-36
2021/11/20 04:35:32;;;;;;;21.30;16.60;;;11.40;99.90;;;;;;5008206;28;20418;-36
2021/11/20 04:37:57;;;;;;;22.77;17.87;;;11.20;99.90;;;;;;5008024;28;20516;-36
2021/11/20 04:40:24;;;;;;;24.70;18.73;;;11.20;99.90;;;;;;5012676;28;20458;-36
2021/11/20 04:42:51;;;;;;;23.20;18.20;;;11.10;99.90;;;;;;5014572;28;20179;-36
2021/11/20 04:45:22;;;;;;;24.90;18.17;;;11.30;99.90;;;;;;5019838;28;20463;-36
2021/11/20 04:47:48;;;;;;;23.80;18.20;;;11.20;99.90;;;;;;5020916;28;20596;-36
2021/11/20 04:50:16;;;;;;;23.50;17.77;;;11.20;99.90;;;;;;5007916;28;20795;-36
2021/11/20 04:52:41;;;;;;;25.73;18.87;;;11.10;99.90;;;;;;5008137;28;20460;-37
2021/11/20 04:55:10;;;;;;;23.97;18.77;;;11.10;99.90;;;;;;5015347;28;21146;-36
2021/11/20 04:57:36;;;;;;;24.63;18.10;;;11.10;99.90;;;;;;5010273;28;20238;-36
2021/11/20 05:00:06;;;;;;;25.20;19.27;;;11.00;99.90;;;;;;5010997;28;20833;-36
2021/11/20 05:02:31;;;;;;;25.93;18.47;;;11.00;99.90;;;;;;5009412;28;20780;-36
2021/11/20 05:04:57;;;;;;;28.63;19.93;;;11.00;99.90;;;;;;5012684;28;20679;-36
2021/11/20 05:07:23;;;;;;;29.10;20.00;;;11.00;99.90;;;;;;5008114;28;20190;-36
2021/11/20 05:09:48;;;;;;;24.87;19.90;;;11.10;99.90;;;;;;5012803;28;20854;-36
2021/11/20 05:12:14;;;;;;;26.10;20.37;;;11.00;99.90;;;;;;5020603;28;20183;-36
2021/11/20 05:14:40;;;;;;;24.17;19.37;;;11.10;99.90;;;;;;5024458;28;20277;-36
2021/11/20 05:17:06;;;;;;;29.70;21.40;;;11.20;99.90;;;;;;5007686;28;20228;-36
2021/11/20 05:19:33;;;;;;;25.53;20.30;;;11.20;99.90;;;;;;5009164;28;20180;-36
2021/11/20 05:21:58;;;;;;;27.23;19.50;;;11.40;99.90;;;;;;5013414;28;20425;-36
2021/11/20 05:24:24;;;;;;;26.33;21.00;;;11.10;99.90;;;;;;5016858;28;20453;-36
2021/11/20 05:26:53;;;;;;;27.73;20.03;;;11.20;99.90;;;;;;5019826;28;20229;-37
2021/11/20 05:31:51;;;;;;;27.07;19.60;;;11.00;99.90;;;;;;5007229;28;20422;-36
2021/11/20 05:34:17;;;;;;;32.97;21.23;;;11.10;99.90;;;;;;5019207;28;20795;-36
2021/11/20 05:36:43;;;;;;;29.27;21.23;;;11.20;99.90;;;;;;5007656;28;20194;-36
2021/11/20 05:39:08;;;;;;;32.20;22.90;;;11.10;99.90;;;;;;5007720;28;20297;-37
2021/11/20 05:41:36;;;;;;;33.60;22.43;;;11.30;99.90;;;;;;5019881;28;20179;-36
2021/11/20 05:44:03;;;;;;;28.30;21.30;;;11.00;99.90;;;;;;5019571;28;20269;-36
2021/11/20 05:46:29;;;;;;;30.30;21.40;;;10.90;99.90;;;;;;5024770;28;20440;-36
2021/11/20 05:48:55;;;;;;;29.30;19.73;;;11.00;99.90;;;;;;5016748;28;20779;-36
2021/11/20 05:51:21;;;;;;;31.47;21.63;;;11.00;99.90;;;;;;5012242;28;20312;-36
2021/11/20 05:53:47;;;;;;;29.30;21.20;;;11.20;99.90;;;;;;5017313;28;20182;-36
2021/11/20 05:56:13;;;;;;;28.80;21.80;;;10.90;99.90;;;;;;5018152;28;20873;-36
2021/11/20 05:58:39;;;;;;;31.23;21.60;;;10.90;99.90;;;;;;5013575;28;20693;-36
2021/11/20 06:01:15;;;;;;;33.40;22.63;;;11.20;99.90;;;;;;5017822;28;20179;-36
2021/11/20 06:03:41;;;;;;;30.07;20.73;;;11.00;99.90;;;;;;5010331;28;20206;-36
2021/11/20 06:06:07;;;;;;;31.10;20.10;;;10.90;99.90;;;;;;5008926;28;20511;-36
2021/11/20 06:08:33;;;;;;;31.93;21.00;;;11.00;99.90;;;;;;5021816;28;20190;-36
2021/11/20 06:11:01;;;;;;;26.30;18.87;;;10.80;99.90;;;;;;5026724;28;20435;-36
2021/11/20 06:13:27;;;;;;;28.10;19.67;;;10.80;99.90;;;;;;5024834;28;20406;-36
2021/11/20 06:15:53;;;;;;;30.60;22.00;;;10.90;99.90;;;;;;5036420;28;20877;-36
2021/11/20 06:18:20;;;;;;;29.57;21.23;;;10.90;99.90;;;;;;5016933;28;20468;-36
2021/11/20 06:20:48;;;;;;;34.63;21.90;;;10.90;99.90;;;;;;5020648;28;20432;-36
2021/11/20 06:23:14;;;;;;;33.80;22.00;;;10.90;99.90;;;;;;5010380;28;20430;-36
2021/11/20 06:25:40;;;;;;;30.63;20.10;;;11.20;99.90;;;;;;5013044;28;20776;-36
2021/11/20 06:28:06;;;;;;;33.37;21.73;;;11.10;99.90;;;;;;5024421;28;20417;-36
2021/11/20 06:30:32;;;;;;;30.53;21.60;;;10.90;99.90;;;;;;5026897;28;20997;-36
2021/11/20 06:32:59;;;;;;;32.17;20.97;;;10.90;99.90;;;;;;5019128;28;20218;-36
2021/11/20 06:35:28;;;;;;;30.83;20.63;;;10.90;99.90;;;;;;5021351;28;20789;-37
2021/11/20 06:37:55;;;;;;;33.70;22.37;;;10.70;99.90;;;;;;5030484;28;20478;-36
2021/11/20 06:40:50;;;;;;;34.20;21.27;;;10.70;99.90;;;;;;5024707;28;21006;-36
2021/11/20 06:43:16;;;;;;;34.70;21.30;;;10.70;99.90;;;;;;5017264;28;20449;-36
2021/11/20 06:45:45;;;;;;;31.67;21.50;;;10.70;99.90;;;;;;5026952;28;20428;-36
2021/11/20 06:48:12;;;;;;;36.60;24.20;;;10.90;99.90;;;;;;5018208;28;20524;-36
2021/11/20 06:50:40;;;;;;;31.13;21.90;;;10.90;99.90;;;;;;5010294;28;21017;-36
2021/11/20 06:53:08;;;;;;;34.10;22.30;;;10.80;99.90;;;;;;5009489;28;20476;-36
2021/11/20 06:55:35;;;;;;;36.27;21.47;;;10.70;99.90;;;;;;5012399;28;20435;-36
2021/11/20 07:00:53;;;;;;;31.90;21.40;;;10.80;99.90;;;;;;5013173;28;20845;-36
2021/11/20 07:03:27;;;;;;;31.90;20.43;;;11.00;99.90;;;;;;5009730;28;20639;-36
2021/11/20 07:06:00;;;;;;;30.47;20.30;;;10.90;99.90;;;;;;5018293;28;20882;-36
2021/11/20 07:08:28;;;;;;;28.07;19.80;;;10.80;99.90;;;;;;5027233;28;20429;-36
2021/11/20 07:10:55;;;;;;;31.27;21.50;;;10.80;99.90;;;;;;5019206;28;20891;-36
2021/11/20 07:13:21;;;;;;;31.20;21.37;;;10.90;99.90;;;;;;5013747;28;20487;-36
2021/11/20 07:15:48;;;;;;;30.57;21.37;;;11.10;99.90;;;;;;5012472;28;20418;-36
2021/11/20 07:18:15;;;;;;;29.40;19.57;;;10.80;99.90;;;;;;5008113;28;20484;-36
2021/11/20 07:20:42;;;;;;;31.90;21.00;;;10.80;99.90;;;;;;5019434;28;20472;-36
2021/11/20 07:23:08;;;;;;;29.93;20.60;;;11.00;99.90;;;;;;5009081;28;20445;-36
2021/11/20 07:25:35;;;;;;;30.77;20.83;;;10.90;99.90;;;;;;5009867;28;20960;-36
2021/11/20 07:28:01;;;;;;;32.07;20.47;;;11.10;99.90;;;;;;5015568;28;20921;-36
2021/11/20 07:30:30;;;;;;;28.20;19.33;;;10.90;99.90;;;;;;5028284;28;20428;-36
2021/11/20 07:32:57;;;;;;;30.03;19.77;;;10.90;99.90;;;;;;5036013;28;20490;-36
2021/11/20 07:35:32;;;;;;;31.07;19.50;;;11.10;99.90;;;;;;5036868;28;20470;-36
2021/11/20 07:37:59;;;;;;;30.87;20.50;;;10.90;99.90;;;;;;5034832;28;20531;-36
2021/11/20 07:40:28;;;;;;;29.90;20.23;;;10.90;99.90;;;;;;5029124;28;20866;-36
2021/11/20 07:42:54;;;;;;;31.87;20.67;;;10.90;99.90;;;;;;5030556;28;20440;-36
2021/11/20 07:45:20;;;;;;;30.70;20.77;;;10.90;99.90;;;;;;5033014;28;20425;-37
2021/11/20 07:47:46;;;;;;;28.50;19.27;;;10.90;99.90;;;;;;5043664;28;20183;-36
2021/11/20 07:50:14;;;;;;;34.60;21.00;;;10.90;99.90;;;;;;5036418;28;20451;-36
2021/11/20 07:52:41;;;;;;;27.53;18.80;;;10.90;99.90;;;;;;5033830;28;20688;-36
2021/11/20 07:55:08;;;;;;;32.57;20.50;;;11.00;99.90;;;;;;5018107;28;20421;-36
2021/11/20 07:57:34;;;;;;;27.83;20.27;;;11.00;99.90;;;;;;5018029;28;20500;-36
2021/11/20 07:59:59;;;;;;;30.13;20.53;;;11.00;99.90;;;;;;5020389;28;20850;-36
2021/11/20 08:02:25;;;;;;;31.20;19.90;;;10.90;99.90;;;;;;5009211;28;20202;-36
2021/11/20 08:04:50;;;;;;;29.00;19.60;;;10.90;99.90;;;;;;5018808;28;20186;-36
2021/11/20 08:07:16;;;;;;;29.80;18.23;;;10.90;99.90;;;;;;5019871;28;20179;-36
2021/11/20 08:09:42;;;;;;;29.80;19.53;;;10.90;99.90;;;;;;5023949;28;20241;-36
2021/11/20 08:12:07;;;;;;;33.97;21.37;;;11.00;99.90;;;;;;5019695;28;20186;-36
2021/11/20 08:14:34;;;;;;;29.50;20.23;;;11.00;99.90;;;;;;5016878;28;20182;-36
2021/11/20 08:16:59;;;;;;;29.03;19.30;;;11.00;99.90;;;;;;5008878;28;20666;-36
2021/11/20 08:19:26;;;;;;;29.07;19.03;;;11.00;99.90;;;;;;5013618;28;20461;-36
2021/11/20 08:21:52;;;;;;;26.27;18.83;;;11.20;99.90;;;;;;5009385;28;20553;-36
2021/11/20 08:24:18;;;;;;;30.43;19.37;;;11.20;99.90;;;;;;5007792;28;20418;-37
2021/11/20 08:26:46;;;;;;;31.37;20.13;;;11.20;99.90;;;;;;5015139;28;20428;-36
2021/11/20 08:29:15;;;;;;;28.50;19.03;;;11.20;99.90;;;;;;5024478;28;20425;-37
2021/11/20 08:31:44;;;;;;;30.60;19.37;;;11.10;99.90;;;;;;5007764;28;20508;-37
2021/11/20 08:34:12;;;;;;;26.47;18.07;;;11.20;99.90;;;;;;5010057;28;20425;-37
2021/11/20 08:36:39;;;;;;;24.93;17.67;;;11.20;99.90;;;;;;5008329;28;20421;-36
2021/11/20 08:39:07;;;;;;;26.47;19.80;;;11.10;99.90;;;;;;5008248;28;20533;-37
2021/11/20 08:41:33;;;;;;;27.80;19.70;;;11.20;99.90;;;;;;5009911;28;20800;-37
2021/11/20 08:43:59;;;;;;;25.10;18.17;;;11.30;99.90;;;;;;5024081;28;20816;-37
2021/11/20 08:46:26;;;;;;;28.80;18.80;;;11.20;99.90;;;;;;5019705;28;20442;-37
2021/11/20 08:48:52;;;;;;;30.07;19.37;;;11.30;99.90;;;;;;5019731;28;20742;-36
2021/11/20 08:51:21;;;;;;;26.73;19.27;;;11.40;99.90;;;;;;5020028;28;20432;-36
2021/11/20 08:53:49;;;;;;;30.10;19.80;;;11.10;99.90;;;;;;5007475;28;20294;-37
2021/11/20 08:56:14;;;;;;;26.67;18.87;;;11.20;99.90;;;;;;5011134;28;20421;-37
2021/11/20 08:58:40;;;;;;;30.13;19.27;;;11.30;99.90;;;;;;5016143;28;20840;-36
2021/11/20 09:01:21;;;;;;;29.30;19.43;;;11.20;99.90;;;;;;5015040;28;20191;-37
2021/11/20 09:04:00;;;;;;;33.83;18.83;;;11.20;99.90;;;;;;5007197;28;20201;-36
2021/11/20 09:06:44;;;;;;;27.90;19.60;;;11.20;99.90;;;;;;5018067;28;20428;-37
2021/11/20 09:09:33;;;;;;;28.50;19.60;;;11.30;99.90;;;;;;5027647;28;20537;-36
2021/11/20 09:12:04;;;;;;;29.40;20.50;;;11.10;99.90;;;;;;5019760;28;20986;-36
2021/11/20 09:14:40;;;;;;;25.17;18.90;;;11.20;99.90;;;;;;5021153;28;20833;-36
2021/11/20 09:17:07;;;;;;;30.27;18.57;;;11.40;99.90;;;;;;5006741;28;20768;-37
2021/11/20 09:19:35;;;;;;;28.70;19.63;;;11.30;99.90;;;;;;5010198;28;20473;-36
2021/11/20 09:22:03;;;;;;;25.37;17.97;;;11.40;99.90;;;;;;5007342;28;20505;-37
2021/11/20 09:24:32;;;;;;;32.83;20.80;;;11.30;99.90;;;;;;5006985;28;20462;-36
2021/11/20 09:26:58;;;;;;;28.33;19.20;;;11.30;99.90;;;;;;5014590;28;20504;-37
2021/11/20 09:29:27;;;;;;;37.37;19.60;;;11.50;99.90;;;;;;5016912;28;20555;-37
2021/11/20 09:31:54;;;;;;;30.10;19.20;;;11.30;99.90;;;;;;5015046;28;20418;-36
2021/11/20 09:34:20;;;;;;;27.70;19.73;;;11.50;99.90;;;;;;5006856;28;20448;-36
2021/11/20 09:36:49;;;;;;;26.60;18.47;;;11.20;99.90;;;;;;5021425;28;20425;-36
2021/11/20 09:39:16;;;;;;;160.30;27.80;;;11.40;99.90;;;;;;5022056;28;20460;-41
2021/11/20 09:41:57;;;;;;;40.33;20.87;;;11.50;99.90;;;;;;5014697;28;20428;-35
2021/11/20 09:44:23;;;;;;;28.90;18.47;;;11.50;99.90;;;;;;5019216;28;20417;-36
2021/11/20 09:46:52;;;;;;;40.17;20.80;;;11.50;99.90;;;;;;5012817;28;20467;-37
2021/11/20 09:49:30;;;;;;;176.50;24.70;;;11.50;99.90;;;;;;5025692;28;20564;-36
2021/11/20 09:51:56;;;;;;;32.37;18.60;;;11.70;99.90;;;;;;5020359;28;20420;-36
2021/11/20 09:54:32;;;;;;;27.60;18.77;;;11.50;99.90;;;;;;5006191;28;20564;-36
2021/11/20 09:57:15;;;;;;;27.20;18.20;;;11.50;99.90;;;;;;5014686;28;20445;-37
2021/11/20 10:00:13;;;;;;;27.33;17.47;;;11.40;99.90;;;;;;5016491;28;20478;-36
2021/11/20 10:02:50;;;;;;;29.00;19.10;;;11.60;99.90;;;;;;4995172;28;20625;-36
2021/11/20 10:05:32;;;;;;;25.13;18.30;;;11.50;99.90;;;;;;5011662;28;20444;-37
2021/11/20 10:08:03;;;;;;;27.10;17.67;;;11.70;99.90;;;;;;5007269;28;20414;-36
2021/11/20 10:10:34;;;;;;;25.07;18.07;;;11.70;99.90;;;;;;5007063;28;20811;-36
2021/11/20 10:13:03;;;;;;;26.20;19.23;;;11.60;99.90;;;;;;5022586;28;20433;-36
2021/11/20 10:15:33;;;;;;;23.97;17.90;;;11.40;99.90;;;;;;5018341;28;20414;-35
2021/11/20 10:18:02;;;;;;;25.83;18.37;;;11.50;99.90;;;;;;5013570;28;20462;-36
2021/11/20 10:20:39;;;;;;;29.47;19.77;;;11.70;99.90;;;;;;5007521;28;20501;-36
2021/11/20 10:23:20;;;;;;;26.00;17.27;;;11.50;99.90;;;;;;5006531;28;20440;-36
2021/11/20 10:26:22;;;;;;;27.73;19.30;;;11.50;99.90;;;;;;5007436;28;20441;-36
2021/11/20 10:29:13;;;;;;;25.03;18.50;;;11.40;99.90;;;;;;5012450;28;20442;-36
2021/11/20 10:31:44;;;;;;;27.67;18.33;;;11.50;99.90;;;;;;5012388;28;20422;-36
2021/11/20 10:34:35;;;;;;;23.70;17.50;;;11.50;99.90;;;;;;5006534;28;20509;-36
2021/11/20 10:37:14;;;;;;;28.87;18.73;;;11.50;99.90;;;;;;5017354;28;20444;-36
2021/11/20 10:39:50;;;;;;;28.63;17.63;;;11.50;99.90;;;;;;5027056;28;20499;-35
2021/11/20 10:42:19;;;;;;;27.27;19.30;;;11.50;99.90;;;;;;5020890;28;20421;-36
2021/11/20 10:44:47;;;;;;;25.57;19.03;;;11.50;99.90;;;;;;5019602;28;20413;-36
2021/11/20 10:47:14;;;;;;;28.17;17.20;;;11.60;99.90;;;;;;5025868;28;20413;-36
2021/11/20 10:50:07;;;;;;;24.20;18.20;;;11.50;99.90;;;;;;5018819;28;20509;-36
2021/11/20 10:53:10;;;;;;;23.93;17.60;;;11.50;99.90;;;;;;5024830;28;20487;-35
2021/11/20 10:56:13;;;;;;;24.50;16.23;;;11.50;99.90;;;;;;5030267;28;20405;-36
2021/11/20 10:58:56;;;;;;;22.67;16.23;;;11.50;99.90;;;;;;5027034;28;20468;-36
2021/11/20 11:01:59;;;;;;;24.70;17.43;;;11.50;99.90;;;;;;5024790;28;20429;-36
2021/11/20 11:04:36;;;;;;;22.30;15.57;;;11.50;99.90;;;;;;5025918;28;20432;-36
2021/11/20 11:07:21;;;;;;;21.77;16.33;;;11.50;99.90;;;;;;5020680;28;20536;-36
2021/11/20 11:09:54;;;;;;;21.47;16.30;;;11.70;99.90;;;;;;5016964;28;20428;-36
2021/11/20 11:12:30;;;;;;;23.93;16.93;;;11.50;99.90;;;;;;5011616;28;20466;-36
2021/11/20 11:15:29;;;;;;;24.50;16.03;;;11.40;99.90;;;;;;5023062;28;20426;-36
2021/11/20 11:18:20;;;;;;;21.17;16.47;;;11.30;99.90;;;;;;5017472;28;20984;-36
2021/11/20 11:21:04;;;;;;;20.77;15.30;;;11.50;99.90;;;;;;5016889;28;20417;-36
2021/11/20 11:23:45;;;;;;;23.53;15.97;;;11.40;99.90;;;;;;5010569;28;20420;-36
2021/11/20 11:26:15;;;;;;;20.93;15.40;;;11.40;99.90;;;;;;5012147;28;20421;-36
2021/11/20 11:28:47;;;;;;;23.70;17.13;;;11.50;99.90;;;;;;5018268;28;20582;-36
2021/11/20 11:31:25;;;;;;;23.27;15.97;;;11.50;99.90;;;;;;5018016;28;20505;-36
2021/11/20 11:34:27;;;;;;;25.70;16.37;;;11.40;99.90;;;;;;5009406;28;20410;-36
2021/11/20 11:37:19;;;;;;;21.63;15.23;;;11.30;99.90;;;;;;5016310;28;20826;-36
2021/11/20 11:40:09;;;;;;;22.60;15.10;;;11.50;99.90;;;;;;5008784;28;20440;-36
2021/11/20 11:43:07;;;;;;;19.47;13.40;;;11.60;99.90;;;;;;5026963;28;20822;-36
2021/11/20 11:46:00;;;;;;;19.83;14.43;;;11.30;99.90;;;;;;5000753;28;21037;-36
2021/11/20 11:48:34;;;;;;;22.90;15.13;;;11.30;99.90;;;;;;5029414;28;20425;-36
2021/11/20 11:51:24;;;;;;;18.93;14.70;;;11.40;99.90;;;;;;5022536;28;20413;-36
2021/11/20 11:53:56;;;;;;;20.20;14.87;;;11.40;99.90;;;;;;5008785;28;20425;-36
2021/11/20 11:57:07;;;;;;;20.03;14.00;;;11.50;99.90;;;;;;5027558;28;20796;-36
2021/11/20 11:59:36;;;;;;;19.00;13.23;;;11.50;99.90;;;;;;5026107;28;20476;-36
2021/11/20 12:02:34;;;;;;;18.67;13.13;;;11.30;99.90;;;;;;5030576;28;20428;-36
2021/11/20 12:05:33;;;;;;;18.97;13.53;;;11.40;99.90;;;;;;5007586;28;20426;-36
2021/11/20 12:08:36;;;;;;;16.23;13.00;;;11.30;99.90;;;;;;5020437;28;20475;-36
2021/11/20 12:11:27;;;;;;;17.33;13.13;;;11.30;99.90;;;;;;5028603;28;20425;-36
2021/11/20 12:14:06;;;;;;;17.00;13.73;;;11.30;99.90;;;;;;5020286;28;20971;-36
2021/11/20 12:17:02;;;;;;;18.43;13.50;;;11.40;99.90;;;;;;5020189;28;20414;-36
2021/11/20 12:20:06;;;;;;;16.40;12.93;;;11.20;99.90;;;;;;5007893;28;20897;-37
2021/11/20 12:22:52;;;;;;;18.57;12.40;;;11.50;99.90;;;;;;5015214;28;20437;-36
2021/11/20 12:25:43;;;;;;;14.20;12.63;;;11.40;99.90;;;;;;5008934;28;20414;-36
2021/11/20 12:28:35;;;;;;;14.00;11.60;;;11.20;99.90;;;;;;5016449;28;20477;-36
2021/11/20 12:31:19;;;;;;;13.30;11.47;;;11.20;99.90;;;;;;5020468;28;20769;-36
2021/11/20 12:34:09;;;;;;;13.57;10.70;;;11.20;99.90;;;;;;5018311;28;20417;-36
2021/11/20 12:36:47;;;;;;;14.03;11.37;;;11.30;99.90;;;;;;5021560;28;20410;-36
2021/11/20 12:39:49;;;;;;;12.60;11.30;;;11.40;99.90;;;;;;5008224;28;20504;-36
2021/11/20 12:42:30;;;;;;;14.23;11.30;;;11.20;99.90;;;;;;5013683;28;20435;-36
2021/11/20 12:45:22;;;;;;;12.93;11.37;;;11.30;99.90;;;;;;5018253;28;20844;-37
2021/11/20 12:47:53;;;;;;;14.07;11.77;;;11.20;99.90;;;;;;5018640;28;20452;-36
2021/11/20 12:50:22;;;;;;;13.23;11.40;;;11.20;99.90;;;;;;5014660;28;20422;-36
2021/11/20 12:52:47;;;;;;;11.20;9.67;;;11.10;99.90;;;;;;5019629;28;20433;-36
2021/11/20 12:55:19;;;;;;;12.50;10.90;;;11.30;99.90;;;;;;5008121;28;20414;-36